Time;durP1;ratioP1;P1;durP2;ratioP2;P2;SDS_P1;SDS_P2;PMS_P1;PMS_P2;Temp;Humidity;BMP_temperature;BMP_pressure;BME280_temperature;BME280_humidity;BME280_pressure;Samples;Min_cycle;Max_cycle;Signal;HPM_P1;HPM_P2
2022/09/16 00:03:13;;;;;;;3.60;3.00;;;;;;;10.05;82.75;98218.64;446767;1274;142526;-62
2022/09/16 00:13:19;;;;;;;3.80;2.90;;;;;;;9.97;82.97;98216.19;446748;1274;144488;-62
2022/09/16 00:23:25;;;;;;;3.90;3.00;;;;;;;9.82;83.26;98231.91;445913;1274;142977;-62
2022/09/16 00:33:31;;;;;;;7.60;3.30;;;;;;;9.71;83.64;98244.70;446627;1274;184960;-62
2022/09/16 00:43:52;;;;;;;3.70;3.40;;;;;;;9.57;83.96;98242.91;446410;1276;141609;-62
2022/09/16 00:54:02;;;;;;;7.00;4.60;;;;;;;9.41;84.18;98235.63;446541;1274;142392;-62
2022/09/16 01:04:12;;;;;;;3.60;3.20;;;;;;;9.37;84.54;98247.26;446646;1274;144813;-62
2022/09/16 01:24:58;;;;;;;5.70;4.40;;;;;;;9.34;84.85;98248.23;446267;1275;142243;-61
2022/09/16 01:35:12;;;;;;;5.20;3.90;;;;;;;9.20;85.26;98253.36;445884;1274;145450;-61
2022/09/16 01:45:24;;;;;;;8.50;5.00;;;;;;;9.11;85.73;98250.35;446645;1274;141790;-61
2022/09/16 01:55:36;;;;;;;4.90;4.20;;;;;;;9.06;85.97;98256.00;446496;1275;143913;-62
2022/09/16 02:05:48;;;;;;;4.30;4.00;;;;;;;9.15;86.44;98251.44;446004;1274;184504;-62
2022/09/16 02:15:59;;;;;;;5.60;5.10;;;;;;;9.28;86.61;98255.69;446780;1273;143439;-62
2022/09/16 02:26:09;;;;;;;6.00;3.40;;;;;;;9.36;86.67;98252.39;446063;1274;142600;-61
2022/09/16 02:36:19;;;;;;;4.30;3.40;;;;;;;9.46;86.53;98261.45;446558;1274;142980;-63
2022/09/16 02:46:37;;;;;;;5.50;4.00;;;;;;;9.55;86.79;98258.94;446777;1274;142156;-62
2022/09/16 02:56:43;;;;;;;4.00;3.70;;;;;;;9.63;86.53;98264.06;446036;1274;143896;-62
2022/09/16 03:06:49;;;;;;;4.80;3.20;;;;;;;9.71;86.44;98265.57;443673;1274;142310;-62
2022/09/16 03:17:01;;;;;;;4.70;2.80;;;;;;;9.74;86.53;98267.20;446750;1274;141864;-62
2022/09/16 03:27:12;;;;;;;2.80;2.50;;;;;;;9.63;86.23;98265.83;446689;1274;144642;-61
2022/09/16 03:37:22;;;;;;;3.30;3.00;;;;;;;9.39;86.41;98266.70;446735;1274;141774;-60
2022/09/16 03:47:28;;;;;;;5.70;3.20;;;;;;;9.18;86.65;98278.78;433080;1274;143249;-61
2022/09/16 03:57:33;;;;;;;4.70;2.70;;;;;;;9.00;87.15;98282.62;437322;1275;143042;-61
2022/09/16 04:07:39;;;;;;;5.40;3.50;;;;;;;8.94;87.29;98283.95;446718;1274;143649;-62
2022/09/16 04:17:45;;;;;;;3.50;2.10;;;;;;;9.05;87.72;98284.55;445309;1276;142217;-62
2022/09/16 04:27:51;;;;;;;4.70;2.40;;;;;;;9.22;87.63;98293.48;446681;1273;143668;-62
2022/09/16 04:37:57;;;;;;;4.20;2.30;;;;;;;9.48;87.53;98300.73;445911;1274;142423;-60
2022/09/16 04:48:03;;;;;;;11.10;2.30;;;;;;;9.67;87.15;98299.41;446875;1274;143366;-62
2022/09/16 04:58:09;;;;;;;7.80;3.00;;;;;;;9.72;86.79;98306.85;446812;1273;142624;-62
2022/09/16 05:08:14;;;;;;;2.70;1.80;;;;;;;10.18;86.57;98302.73;446129;1272;144812;-62
2022/09/16 05:18:20;;;;;;;3.40;1.50;;;;;;;10.93;85.37;98294.80;444269;1274;141956;-62
2022/09/16 05:28:26;;;;;;;2.90;1.50;;;;;;;12.18;84.32;98299.48;446940;1273;142835;-62
2022/09/16 05:38:31;;;;;;;5.50;2.10;;;;;;;17.58;78.42;98295.71;446197;1274;142515;-61
2022/09/16 05:48:37;;;;;;;5.00;1.50;;;;;;;19.58;69.37;98300.02;446997;1274;143715;-62
2022/09/16 05:58:43;;;;;;;1.70;1.20;;;;;;;18.09;68.14;98301.75;446891;1273;142360;-62
2022/09/16 06:08:49;;;;;;;2.60;1.30;;;;;;;17.20;67.64;98287.45;446134;1273;187434;-62
2022/09/16 06:18:56;;;;;;;2.10;0.80;;;;;;;18.28;66.42;98296.73;446873;1272;142176;-63
2022/09/16 06:29:01;;;;;;;2.30;0.90;;;;;;;19.11;64.63;98294.30;446153;1272;144192;-62
2022/09/16 06:39:07;;;;;;;3.10;1.30;;;;;;;23.12;60.58;98280.63;446775;1273;143071;-62
2022/09/16 06:49:13;;;;;;;3.90;1.50;;;;;;;27.22;52.94;98282.73;446833;1273;145704;-63
2022/09/16 06:59:19;;;;;;;1.70;0.90;;;;;;;27.69;48.56;98285.03;445670;1275;163096;-62
2022/09/16 07:09:24;;;;;;;6.10;1.90;;;;;;;29.22;45.01;98280.48;446986;1273;140921;-61
2022/09/16 07:19:30;;;;;;;4.40;1.20;;;;;;;32.54;41.87;98289.48;446945;1274;141475;-62
2022/09/16 07:29:36;;;;;;;4.00;1.00;;;;;;;34.51;37.24;98289.29;444865;1273;142097;-62
2022/09/16 07:39:42;;;;;;;3.10;1.00;;;;;;;29.02;37.06;98289.13;430449;1274;142974;-63
2022/09/16 07:49:46;;;;;;;;;;;;;;;26.26;37.84;98290.27;430084;1274;142103;-61
2022/09/16 07:59:53;;;;;;;3.20;1.40;;;;;;;22.73;40.55;98289.95;429390;1275;130162;-62
2022/09/16 08:09:59;;;;;;;5.30;1.20;;;;;;;22.55;42.15;98290.07;430339;1274;141760;-61
2022/09/16 08:20:06;;;;;;;6.50;1.40;;;;;;;23.10;41.93;98289.24;429943;1274;144337;-62
2022/09/16 08:30:13;;;;;;;;;;;;;;;24.09;41.18;98293.37;430445;1275;140955;-62
2022/09/16 08:40:23;;;;;;;4.10;1.10;;;;;;;21.08;42.43;98295.05;431072;1274;128884;-63
2022/09/16 08:50:33;;;;;;;2.10;1.20;;;;;;;21.85;43.70;98301.67;428068;1276;1702223;-61
2022/09/16 09:00:42;;;;;;;1.40;0.60;;;;;;;21.42;42.98;98298.52;430529;1275;145108;-62
2022/09/16 09:10:52;;;;;;;1.70;0.70;;;;;;;20.83;43.17;98297.48;430178;1275;142042;-62
2022/09/16 09:21:10;;;;;;;3.80;0.80;;;;;;;21.05;43.57;98296.66;429762;1275;142309;-62
2022/09/16 09:31:27;;;;;;;5.10;0.70;;;;;;;20.46;43.82;98297.16;430279;1274;140457;-63
2022/09/16 09:41:38;;;;;;;2.50;0.70;;;;;;;20.64;44.37;98301.66;429827;1274;142373;-61
2022/09/16 09:51:49;;;;;;;2.00;0.50;;;;;;;20.79;43.97;98303.70;430478;1274;141855;-65
2022/09/16 10:02:00;;;;;;;1.80;0.60;;;;;;;19.93;43.96;98307.48;440189;1274;196346;-64
2022/09/16 10:12:06;;;;;;;3.50;1.20;;;;;;;19.07;45.28;98297.05;446761;1274;141626;-63
2022/09/16 10:22:22;;;;;;;3.50;1.10;;;;;;;18.85;45.83;98304.10;446581;1276;142912;-63
2022/09/16 10:32:28;;;;;;;1.60;1.20;;;;;;;18.69;45.62;98295.11;445752;1274;141738;-63
2022/09/16 10:42:34;;;;;;;2.70;1.40;;;;;;;18.32;46.33;98301.48;446822;1274;141606;-63
2022/09/16 10:52:45;;;;;;;5.00;0.80;;;;;;;18.18;46.56;98301.77;446950;1274;142192;-63
2022/09/16 11:03:07;;;;;;;3.50;1.10;;;;;;;17.56;47.96;98301.59;446162;1274;141158;-62
2022/09/16 11:13:28;;;;;;;7.10;1.80;;;;;;;17.39;48.33;98301.23;446961;1274;141727;-62
2022/09/16 11:23:47;;;;;;;3.00;1.10;;;;;;;17.02;48.79;98297.48;446206;1274;143363;-62
2022/09/16 11:34:02;;;;;;;0.80;0.80;;;;;;;17.52;48.86;98290.36;446942;1274;141890;-62
2022/09/16 11:44:30;;;;;;;2.60;0.90;;;;;;;17.75;48.29;98289.88;446173;1271;143138;-63
2022/09/16 11:54:54;;;;;;;2.40;1.10;;;;;;;17.47;48.74;98295.52;446921;1273;142586;-64
2022/09/16 12:05:11;;;;;;;2.00;1.00;;;;;;;17.62;49.30;98289.60;446164;1274;144985;-61
2022/09/16 12:15:22;;;;;;;1.20;0.80;;;;;;;17.67;48.78;98279.24;446938;1274;141742;-63
2022/09/16 12:25:32;;;;;;;8.40;1.80;;;;;;;17.58;48.50;98284.02;446982;1274;142253;-62
2022/09/16 12:35:41;;;;;;;2.00;1.10;;;;;;;17.77;48.77;98268.40;446136;1274;142125;-62
2022/09/16 12:46:09;;;;;;;2.10;1.00;;;;;;;17.77;47.97;98258.96;446934;1274;142737;-63
2022/09/16 12:56:18;;;;;;;;;;;;;;;17.00;48.25;98251.39;441713;1274;143352;-61
2022/09/16 13:06:28;;;;;;;1.60;1.40;;;;;;;16.40;48.15;98260.62;442832;1274;127799;-62
2022/09/16 13:16:36;;;;;;;2.90;0.90;;;;;;;16.51;48.44;98263.45;446954;1274;144062;-61
2022/09/16 13:26:44;;;;;;;3.00;1.70;;;;;;;16.39;48.48;98258.44;445767;1273;144866;-63
2022/09/16 13:36:48;;;;;;;;;;;;;;;16.48;48.51;98246.83;446963;1274;141150;-63
2022/09/16 13:46:54;;;;;;;4.70;1.80;;;;;;;16.35;49.19;98250.56;447156;1274;129624;-63
2022/09/16 13:57:26;;;;;;;1.80;1.20;;;;;;;16.55;49.47;98251.21;446482;1275;143050;-62
2022/09/16 14:07:42;;;;;;;0.90;0.60;;;;;;;16.28;49.07;98261.06;446997;1274;141761;-62
2022/09/16 14:17:52;;;;;;;0.70;0.40;;;;;;;15.47;50.98;98277.42;446300;1274;142130;-62
2022/09/16 14:28:10;;;;;;;3.70;0.50;;;;;;;15.44;51.62;98256.73;447040;1274;141731;-62
2022/09/16 14:38:18;;;;;;;2.10;0.40;;;;;;;15.57;51.30;98248.96;446290;1274;141558;-62
2022/09/16 14:48:43;;;;;;;;;;;;;;;15.38;51.81;98245.20;447054;1274;140827;-62
2022/09/16 14:58:49;;;;;;;3.20;0.90;;;;;;;15.41;51.74;98230.54;447228;1274;128301;-63
2022/09/16 15:08:59;;;;;;;2.20;1.00;;;;;;;15.15;52.56;98233.98;446302;1274;141469;-62
2022/09/16 15:19:07;;;;;;;1.40;0.70;;;;;;;14.95;53.15;98228.23;447081;1273;141904;-62
2022/09/16 15:29:30;;;;;;;10.70;1.00;;;;;;;14.86;53.78;98225.70;446273;1274;142771;-62
2022/09/16 15:39:37;;;;;;;1.70;0.50;;;;;;;14.51;54.27;98218.79;447034;1274;141247;-63
2022/09/16 15:49:45;;;;;;;4.50;1.20;;;;;;;14.31;54.97;98211.91;447038;1272;142168;-62
2022/09/16 16:00:08;;;;;;;2.00;0.90;;;;;;;14.23;55.53;98214.08;446282;1274;141155;-62
2022/09/16 16:10:17;;;;;;;1.10;0.60;;;;;;;13.93;56.38;98210.36;437583;1274;142292;-62
2022/09/16 16:20:22;;;;;;;1.40;0.60;;;;;;;13.63;57.53;98200.95;445736;1275;142483;-62
2022/09/16 16:30:28;;;;;;;0.90;0.50;;;;;;;13.26;57.87;98192.27;446825;1273;141095;-62
2022/09/16 16:40:34;;;;;;;1.10;0.70;;;;;;;12.84;58.31;98208.93;447019;1273;141592;-63
2022/09/16 16:50:40;;;;;;;0.50;0.50;;;;;;;12.44;58.39;98206.35;429519;1276;188704;-63
2022/09/16 17:00:47;;;;;;;1.70;0.70;;;;;;;12.01;59.20;98217.77;439723;1274;142708;-62
2022/09/16 17:11:07;;;;;;;7.10;1.90;;;;;;;11.62;60.12;98222.40;446522;1275;142722;-63
2022/09/16 17:21:16;;;;;;;1.80;0.90;;;;;;;11.29;61.23;98230.39;446983;1274;143219;-63
2022/09/16 17:31:24;;;;;;;3.10;1.60;;;;;;;11.10;62.15;98239.18;445874;1273;143649;-61
2022/09/16 17:41:29;;;;;;;;;;;;;;;11.23;62.39;98244.37;430076;1274;142875;-60
2022/09/16 17:51:36;;;;;;;1.40;0.70;;;;;;;11.41;62.62;98242.44;430680;1274;184893;-62
2022/09/16 18:01:42;;;;;;;1.60;0.90;;;;;;;11.41;62.49;98242.13;431293;1273;142376;-60
2022/09/16 18:11:48;;;;;;;3.90;0.90;;;;;;;11.06;62.91;98245.33;430140;1273;142458;-61
2022/09/16 18:21:54;;;;;;;2.50;0.60;;;;;;;10.63;63.81;98244.83;430766;1274;143276;-62
2022/09/16 18:32:00;;;;;;;3.40;1.00;;;;;;;10.28;64.96;98250.34;433421;1272;142578;-61
2022/09/16 18:42:07;;;;;;;1.20;0.90;;;;;;;9.94;65.80;98255.96;432721;1274;143302;-60
2022/09/16 18:52:13;;;;;;;4.00;1.50;;;;;;;9.63;66.78;98258.99;430043;1274;145434;-63
2022/09/16 19:02:19;;;;;;;5.40;2.50;;;;;;;9.35;68.02;98263.83;428899;1275;143375;-62
2022/09/16 19:12:25;;;;;;;5.10;2.60;;;;;;;9.08;69.00;98264.90;430288;1274;142990;-62
2022/09/16 19:22:31;;;;;;;9.30;3.70;;;;;;;8.80;69.66;98265.85;430901;1274;141183;-63
2022/09/16 19:32:38;;;;;;;4.30;3.00;;;;;;;8.55;70.47;98270.39;429854;1274;142273;-62
2022/09/16 19:42:44;;;;;;;5.80;3.50;;;;;;;8.31;71.19;98268.29;429401;1274;142121;-62
2022/09/16 19:52:50;;;;;;;6.40;3.60;;;;;;;8.14;72.05;98261.41;429161;1276;144804;-63
2022/09/16 20:02:55;;;;;;;5.10;3.60;;;;;;;7.99;72.57;98262.55;428599;1276;146261;-61
2022/09/16 20:13:01;;;;;;;5.10;3.20;;;;;;;7.83;73.05;98262.50;430143;1276;142372;-65
2022/09/16 20:23:07;;;;;;;4.80;4.30;;;;;;;7.66;73.69;98267.19;429123;1275;141493;-65
2022/09/16 20:33:13;;;;;;;5.60;4.20;;;;;;;7.52;74.32;98269.41;429771;1276;143358;-63
2022/09/16 20:43:19;;;;;;;4.90;4.00;;;;;;;7.38;74.95;98271.80;429943;1274;142357;-63
2022/09/16 20:53:24;;;;;;;4.60;3.90;;;;;;;7.25;75.42;98279.66;431909;1273;1791808;-64
2022/09/16 21:03:30;;;;;;;5.60;4.10;;;;;;;7.14;75.92;98280.99;430215;1273;143451;-65
2022/09/16 21:13:36;;;;;;;5.20;4.20;;;;;;;7.04;76.51;98281.31;430360;1273;141731;-63
2022/09/16 21:23:42;;;;;;;4.70;4.20;;;;;;;6.96;77.02;98280.48;429406;1273;143280;-62
2022/09/16 21:33:50;;;;;;;5.20;4.60;;;;;;;6.89;77.58;98285.00;430774;1273;143623;-60
2022/09/16 21:43:55;;;;;;;;;;;;;;;6.81;78.18;98286.92;430332;1274;141613;-57
2022/09/16 21:54:02;;;;;;;7.40;5.60;;;;;;;6.74;78.95;98288.44;429985;1274;183836;-60
2022/09/16 22:04:11;;;;;;;7.20;4.40;;;;;;;6.67;79.21;98287.89;429461;1276;146323;-61
2022/09/16 22:14:17;;;;;;;5.70;4.10;;;;;;;6.56;79.39;98282.34;429726;1273;140991;-63
2022/09/16 22:24:23;;;;;;;6.00;3.60;;;;;;;6.45;79.60;98272.68;431206;1273;198523;-63
2022/09/16 22:34:28;;;;;;;3.40;3.10;;;;;;;6.34;79.72;98274.29;434440;1274;142849;-62
2022/09/16 22:44:34;;;;;;;4.80;2.60;;;;;;;6.31;80.40;98275.55;432272;1274;142157;-61
2022/09/16 22:54:40;;;;;;;3.10;2.80;;;;;;;6.24;80.39;98274.94;430564;1273;182118;-60
2022/09/16 23:04:46;;;;;;;3.70;2.70;;;;;;;6.07;80.15;98268.61;431071;1274;196849;-61
2022/09/16 23:14:51;;;;;;;5.50;3.10;;;;;;;5.99;80.79;98268.89;430386;1274;142327;-62
2022/09/16 23:24:57;;;;;;;4.90;4.40;;;;;;;6.06;81.87;98260.88;430177;1274;142422;-62
2022/09/16 23:35:03;;;;;;;4.30;3.70;;;;;;;6.09;82.27;98263.41;429967;1274;142944;-63
2022/09/16 23:45:12;;;;;;;4.40;3.50;;;;;;;6.15;82.78;98254.87;430776;1274;141531;-61
2022/09/16 23:55:18;;;;;;;6.80;3.80;;;;;;;6.20;83.23;98254.04;431205;1274;142547;-62
